Time;durP1;ratioP1;P1;durP2;ratioP2;P2;SDS_P1;SDS_P2;PMS_P1;PMS_P2;Temp;Humidity;BMP_temperature;BMP_pressure;BME280_temperature;BME280_humidity;BME280_pressure;Samples;Min_cycle;Max_cycle;Signal;HPM_P1;HPM_P2
2022/11/07 00:01:11;;;;;;;9.03;7.43;;;8.10;99.90;;;;;;6273089;28;20524;-63
2022/11/07 00:04:16;;;;;;;7.17;6.50;;;8.10;99.90;;;;;;6273323;28;20473;-66
2022/11/07 00:07:19;;;;;;;7.07;6.37;;;8.10;99.90;;;;;;6272966;28;20473;-64
2022/11/07 00:10:22;;;;;;;9.03;6.43;;;8.10;99.90;;;;;;6273357;28;20768;-62
2022/11/07 00:13:26;;;;;;;8.93;7.50;;;8.00;99.90;;;;;;6272950;28;20480;-63
2022/11/07 00:16:29;;;;;;;10.53;6.93;;;8.00;99.90;;;;;;6272792;28;21000;-62
2022/11/07 00:19:33;;;;;;;5.60;5.10;;;8.00;99.90;;;;;;6277811;28;20481;-62
2022/11/07 00:22:37;;;;;;;7.00;6.33;;;8.00;99.90;;;;;;6293046;28;20477;-63
2022/11/07 00:25:40;;;;;;;6.80;6.20;;;8.00;99.90;;;;;;6302857;28;20472;-62
2022/11/07 00:28:44;;;;;;;9.70;6.07;;;8.00;99.90;;;;;;6285458;28;20843;-63
2022/11/07 00:31:48;;;;;;;6.73;5.40;;;7.90;99.90;;;;;;6277597;28;20504;-64
2022/11/07 00:34:52;;;;;;;7.10;6.40;;;8.00;99.90;;;;;;6277098;28;20494;-62
2022/11/07 00:37:56;;;;;;;6.50;5.90;;;7.90;99.90;;;;;;6275903;28;20531;-63
2022/11/07 00:41:01;;;;;;;6.10;5.50;;;7.80;99.90;;;;;;6301542;28;20476;-64
2022/11/07 00:44:05;;;;;;;6.90;6.30;;;7.80;99.90;;;;;;6301718;28;20488;-64
2022/11/07 00:47:08;;;;;;;7.00;5.40;;;7.80;99.90;;;;;;6302000;28;20499;-64
2022/11/07 00:50:12;;;;;;;10.20;5.80;;;7.80;99.90;;;;;;6302650;28;20473;-64
2022/11/07 00:53:16;;;;;;;8.47;5.47;;;7.70;99.90;;;;;;6302717;28;20488;-64
2022/11/07 00:56:22;;;;;;;9.03;8.20;;;7.80;99.90;;;;;;6302242;28;20625;-63
2022/11/07 00:59:25;;;;;;;6.40;5.60;;;7.80;99.90;;;;;;6301858;28;20473;-64
2022/11/07 01:02:29;;;;;;;6.47;5.60;;;7.80;99.90;;;;;;6301247;28;20555;-65
2022/11/07 01:05:32;;;;;;;5.53;5.03;;;7.80;99.90;;;;;;6301422;28;20472;-64
2022/11/07 01:08:35;;;;;;;6.10;5.23;;;7.80;99.90;;;;;;6301715;28;20991;-64
2022/11/07 01:11:39;;;;;;;6.53;5.93;;;7.80;99.90;;;;;;6301611;28;20477;-64
2022/11/07 01:14:42;;;;;;;6.90;6.20;;;7.80;99.90;;;;;;6301024;28;20531;-65
2022/11/07 01:17:46;;;;;;;7.17;5.30;;;7.70;99.90;;;;;;6301249;28;20582;-64
2022/11/07 01:20:50;;;;;;;5.80;5.20;;;7.70;99.90;;;;;;6300660;28;20469;-64
2022/11/07 01:23:53;;;;;;;6.87;6.27;;;7.60;99.90;;;;;;6298411;28;20473;-64
2022/11/07 01:26:57;;;;;;;6.93;6.10;;;7.70;99.90;;;;;;6296192;28;20815;-64
2022/11/07 01:30:00;;;;;;;7.17;6.27;;;7.70;99.90;;;;;;6300463;28;20481;-65
2022/11/07 01:33:03;;;;;;;7.03;6.33;;;7.80;99.90;;;;;;6301005;28;20473;-63
2022/11/07 01:36:10;;;;;;;7.50;6.80;;;7.80;99.90;;;;;;6301122;28;20477;-63
2022/11/07 01:39:15;;;;;;;7.13;5.73;;;7.80;99.90;;;;;;6298020;28;20477;-63
2022/11/07 01:42:18;;;;;;;5.30;4.80;;;7.80;99.90;;;;;;6301747;28;20476;-63
2022/11/07 01:45:23;;;;;;;5.90;5.23;;;7.90;99.90;;;;;;6300982;28;20630;-64
2022/11/07 01:48:26;;;;;;;5.43;4.70;;;7.90;99.90;;;;;;6300617;28;20470;-63
2022/11/07 01:51:34;;;;;;;6.00;5.40;;;7.90;99.90;;;;;;6300579;28;20800;-63
2022/11/07 01:54:41;;;;;;;6.20;5.60;;;7.90;99.90;;;;;;6300983;28;20477;-63
2022/11/07 01:57:48;;;;;;;6.43;5.80;;;7.90;99.90;;;;;;6300497;28;20481;-64
2022/11/07 02:00:51;;;;;;;6.77;4.83;;;7.90;99.90;;;;;;6299961;28;20547;-64
2022/11/07 02:03:56;;;;;;;5.83;5.17;;;7.80;99.90;;;;;;6300521;28;20481;-64
2022/11/07 02:07:05;;;;;;;6.10;5.50;;;7.90;99.90;;;;;;6300192;28;20917;-64
2022/11/07 02:10:09;;;;;;;5.63;5.07;;;7.80;99.90;;;;;;6300395;28;20429;-64
2022/11/07 02:13:19;;;;;;;6.37;5.87;;;7.80;99.90;;;;;;6299859;28;20542;-64
2022/11/07 02:16:22;;;;;;;6.50;5.90;;;7.80;99.90;;;;;;6299678;28;20462;-64
2022/11/07 02:19:33;;;;;;;6.23;5.73;;;7.80;99.90;;;;;;6299640;28;20495;-64
2022/11/07 02:22:47;;;;;;;7.23;6.60;;;7.70;99.90;;;;;;6299537;28;20473;-63
2022/11/07 02:25:52;;;;;;;8.37;6.27;;;7.70;99.90;;;;;;6299681;28;20678;-63
2022/11/07 02:28:57;;;;;;;6.73;5.77;;;7.70;99.90;;;;;;6300297;28;20492;-64
2022/11/07 02:32:01;;;;;;;7.10;6.50;;;7.70;99.90;;;;;;6299617;28;20497;-63
2022/11/07 02:35:07;;;;;;;8.40;6.03;;;7.70;99.90;;;;;;6299701;28;20466;-64
2022/11/07 02:38:15;;;;;;;6.30;5.80;;;7.70;99.90;;;;;;6299464;28;20793;-64
2022/11/07 02:41:22;;;;;;;6.53;5.93;;;7.80;99.90;;;;;;6298431;28;20469;-64
2022/11/07 02:44:26;;;;;;;8.20;5.30;;;7.80;99.90;;;;;;6299231;28;20492;-64
2022/11/07 02:47:29;;;;;;;6.23;5.20;;;7.90;99.90;;;;;;6299162;28;20806;-63
2022/11/07 02:50:32;;;;;;;5.47;4.97;;;7.90;99.90;;;;;;6299445;28;20843;-64
2022/11/07 02:53:35;;;;;;;6.50;5.43;;;7.80;99.90;;;;;;6299061;28;20961;-63
2022/11/07 02:56:40;;;;;;;4.53;4.13;;;7.90;99.90;;;;;;6298978;28;20967;-63
2022/11/07 02:59:43;;;;;;;4.73;4.33;;;7.90;99.90;;;;;;6299419;28;20469;-63
2022/11/07 03:02:46;;;;;;;5.83;4.67;;;7.90;99.90;;;;;;6299143;28;20481;-63
2022/11/07 03:05:50;;;;;;;4.63;4.33;;;7.90;99.90;;;;;;6299299;28;20489;-63
2022/11/07 03:08:53;;;;;;;7.47;5.20;;;7.90;99.90;;;;;;6299018;28;20481;-63
2022/11/07 03:11:57;;;;;;;4.97;4.40;;;7.90;99.90;;;;;;6298450;28;20968;-64
2022/11/07 03:15:00;;;;;;;6.13;5.63;;;7.90;99.90;;;;;;6299300;28;20477;-64
2022/11/07 03:18:04;;;;;;;4.73;4.27;;;7.90;99.90;;;;;;6298503;28;20924;-64
2022/11/07 03:21:07;;;;;;;5.40;4.90;;;8.00;99.90;;;;;;6298644;28;20489;-64
2022/11/07 03:24:10;;;;;;;5.10;4.40;;;8.10;99.90;;;;;;6298754;28;20473;-63
2022/11/07 03:27:15;;;;;;;4.47;4.07;;;8.10;99.90;;;;;;6298825;28;20527;-64
2022/11/07 03:30:19;;;;;;;5.43;4.30;;;8.20;99.90;;;;;;6299050;28;20492;-63
2022/11/07 03:33:22;;;;;;;4.63;4.03;;;8.20;99.90;;;;;;6298486;28;20491;-64
2022/11/07 03:36:25;;;;;;;4.40;3.97;;;8.20;99.90;;;;;;6289460;28;20482;-64
2022/11/07 03:39:28;;;;;;;4.00;3.67;;;8.20;99.90;;;;;;6298594;28;20476;-64
2022/11/07 03:42:38;;;;;;;3.90;3.60;;;8.20;99.90;;;;;;6298490;28;20489;-63
2022/11/07 03:45:41;;;;;;;4.50;4.10;;;8.30;99.90;;;;;;6298228;28;20477;-64
2022/11/07 03:48:45;;;;;;;4.37;3.97;;;8.30;99.90;;;;;;6298691;28;20477;-64
2022/11/07 03:51:48;;;;;;;3.57;3.27;;;8.30;99.90;;;;;;6298187;28;20836;-64
2022/11/07 03:54:51;;;;;;;4.40;4.00;;;8.30;99.90;;;;;;6302537;28;20889;-64
2022/11/07 03:57:55;;;;;;;6.90;4.00;;;8.30;99.90;;;;;;6303658;28;20770;-64
2022/11/07 04:00:59;;;;;;;5.30;4.80;;;8.40;99.90;;;;;;6303848;28;20441;-64
2022/11/07 04:04:02;;;;;;;4.40;4.03;;;8.50;99.90;;;;;;6302882;28;20476;-63
2022/11/07 04:07:05;;;;;;;4.20;3.80;;;8.30;99.90;;;;;;6303397;28;20433;-64
2022/11/07 04:10:08;;;;;;;6.23;5.63;;;8.20;99.90;;;;;;6303351;28;20452;-63
2022/11/07 04:19:55;;;;;;;8.50;6.47;;;8.20;99.90;;;;;;6302534;28;20844;-64
2022/11/07 04:22:58;;;;;;;7.73;6.93;;;8.20;99.90;;;;;;6302454;28;20473;-64
2022/11/07 04:29:23;;;;;;;7.33;6.10;;;8.10;99.90;;;;;;6302856;28;20527;-64
2022/11/07 04:32:26;;;;;;;6.30;5.70;;;8.20;99.90;;;;;;6302491;28;20991;-64
2022/11/07 04:35:31;;;;;;;7.53;6.60;;;8.20;99.90;;;;;;6302455;28;20976;-64
2022/11/07 04:38:34;;;;;;;9.90;6.57;;;8.20;99.90;;;;;;6297787;28;20465;-63
2022/11/07 04:41:37;;;;;;;7.67;6.93;;;8.10;99.90;;;;;;6301964;28;20626;-63
2022/11/07 04:44:41;;;;;;;7.53;6.83;;;8.10;99.90;;;;;;6302158;28;20484;-63
2022/11/07 04:47:45;;;;;;;7.83;6.63;;;8.10;99.90;;;;;;6301742;28;20481;-64
2022/11/07 04:50:48;;;;;;;7.30;6.60;;;8.10;99.90;;;;;;6301862;28;20464;-64
2022/11/07 04:53:52;;;;;;;7.97;7.17;;;8.20;99.90;;;;;;6301881;28;20481;-64
2022/11/07 04:56:55;;;;;;;8.47;7.27;;;8.30;99.90;;;;;;6301802;28;20807;-64
2022/11/07 04:59:59;;;;;;;9.40;7.70;;;8.30;99.90;;;;;;6302124;28;20538;-63
2022/11/07 05:03:03;;;;;;;9.97;6.63;;;8.30;99.90;;;;;;6301692;28;20481;-63
2022/11/07 05:06:06;;;;;;;10.67;8.20;;;8.20;99.90;;;;;;6301021;28;20870;-64
2022/11/07 05:09:14;;;;;;;11.07;8.60;;;8.20;99.90;;;;;;6301766;28;20488;-63
2022/11/07 05:12:17;;;;;;;8.43;7.17;;;8.10;99.90;;;;;;6301532;28;20960;-63
2022/11/07 05:15:21;;;;;;;8.50;7.33;;;8.20;99.90;;;;;;6301717;28;20484;-64
2022/11/07 05:18:25;;;;;;;8.90;8.00;;;8.20;99.90;;;;;;6301174;28;20535;-64
2022/11/07 05:21:28;;;;;;;11.97;7.83;;;8.30;99.90;;;;;;6301060;28;20836;-64
2022/11/07 05:24:31;;;;;;;8.83;8.03;;;8.20;99.90;;;;;;6301251;28;20975;-64
2022/11/07 05:27:34;;;;;;;7.93;6.97;;;8.20;99.90;;;;;;6301441;28;20469;-64
2022/11/07 05:30:41;;;;;;;8.40;7.20;;;8.30;99.90;;;;;;6301321;28;20485;-63
2022/11/07 05:33:44;;;;;;;11.80;8.33;;;8.20;99.90;;;;;;6301176;28;20858;-63
2022/11/07 05:36:47;;;;;;;9.17;8.20;;;8.20;99.90;;;;;;6301010;28;20477;-64
2022/11/07 05:39:51;;;;;;;11.40;8.27;;;8.20;99.90;;;;;;6301113;28;20785;-64
2022/11/07 05:43:00;;;;;;;9.10;8.23;;;8.20;99.90;;;;;;6301088;28;20453;-64
2022/11/07 05:46:05;;;;;;;9.40;8.50;;;8.10;99.90;;;;;;6301085;28;20452;-63
2022/11/07 05:49:08;;;;;;;10.77;8.63;;;8.00;99.90;;;;;;6300905;28;20438;-63
2022/11/07 05:52:12;;;;;;;9.90;8.70;;;8.00;99.90;;;;;;6300684;28;20469;-63
2022/11/07 05:55:15;;;;;;;12.10;9.37;;;7.90;99.90;;;;;;6300494;28;20464;-61
2022/11/07 05:58:19;;;;;;;9.00;8.13;;;7.80;99.90;;;;;;6300259;28;20830;-61
2022/11/07 06:01:23;;;;;;;11.30;8.87;;;7.80;99.90;;;;;;6299104;28;20806;-61
2022/11/07 06:04:26;;;;;;;8.40;7.60;;;7.80;99.90;;;;;;6300639;28;20469;-61
2022/11/07 06:07:32;;;;;;;10.80;7.63;;;7.90;99.90;;;;;;6300271;28;20476;-61
2022/11/07 06:10:36;;;;;;;11.83;9.27;;;8.00;99.90;;;;;;6300417;28;20481;-61
2022/11/07 06:13:39;;;;;;;12.70;9.30;;;8.00;99.90;;;;;;6300813;28;20496;-63
2022/11/07 06:16:44;;;;;;;10.97;9.47;;;8.00;99.90;;;;;;6301244;28;20581;-64
2022/11/07 06:19:47;;;;;;;9.80;7.83;;;8.10;99.90;;;;;;6299871;28;20470;-63
2022/11/07 06:22:50;;;;;;;13.20;8.80;;;8.10;99.90;;;;;;6299897;28;20496;-63
2022/11/07 06:25:53;;;;;;;9.53;7.77;;;8.10;99.90;;;;;;6299856;28;20477;-63
2022/11/07 06:28:56;;;;;;;10.60;8.60;;;8.10;99.90;;;;;;6299874;28;20609;-63
2022/11/07 06:32:01;;;;;;;10.40;7.47;;;8.10;99.90;;;;;;6299543;28;20480;-63
2022/11/07 06:35:04;;;;;;;8.97;7.20;;;8.20;99.90;;;;;;6299862;28;20465;-63
2022/11/07 06:38:10;;;;;;;8.30;7.50;;;8.20;99.90;;;;;;6299372;28;20485;-62
2022/11/07 06:41:14;;;;;;;8.40;7.60;;;8.30;99.90;;;;;;6299130;28;20473;-63
2022/11/07 06:44:17;;;;;;;9.23;8.23;;;8.40;99.90;;;;;;6299057;28;20473;-63
2022/11/07 06:47:22;;;;;;;7.87;7.10;;;8.40;99.90;;;;;;6289308;28;20485;-63
2022/11/07 06:50:25;;;;;;;8.47;7.67;;;8.40;99.90;;;;;;6299079;28;20480;-63
2022/11/07 06:53:28;;;;;;;9.20;8.37;;;8.40;99.90;;;;;;6298333;28;20469;-63
2022/11/07 06:56:31;;;;;;;9.70;8.50;;;8.60;99.90;;;;;;6298449;28;20917;-63
2022/11/07 06:59:35;;;;;;;9.27;8.37;;;8.60;99.90;;;;;;6298767;28;20484;-63
2022/11/07 07:02:39;;;;;;;10.37;9.23;;;8.70;99.90;;;;;;6298697;28;20473;-63
2022/11/07 07:06:04;;;;;;;12.97;9.80;;;8.80;99.90;;;;;;6298669;28;20484;-63
2022/11/07 07:09:07;;;;;;;12.93;9.07;;;8.80;99.90;;;;;;6299131;28;20809;-63
2022/11/07 07:12:10;;;;;;;10.73;8.37;;;8.90;99.90;;;;;;6298704;28;20549;-62
2022/11/07 07:15:13;;;;;;;10.40;8.47;;;8.90;99.90;;;;;;6298997;28;20469;-64
2022/11/07 07:18:18;;;;;;;10.37;8.87;;;8.90;99.90;;;;;;6298344;28;20485;-62
2022/11/07 07:21:21;;;;;;;9.30;7.57;;;9.00;99.90;;;;;;6299007;28;20478;-62
2022/11/07 07:24:24;;;;;;;11.30;8.87;;;9.00;99.90;;;;;;6298496;28;20480;-62
2022/11/07 07:27:28;;;;;;;13.97;8.47;;;9.10;99.90;;;;;;6298271;28;20469;-62
2022/11/07 07:30:31;;;;;;;9.53;8.20;;;9.10;99.90;;;;;;6298543;28;20465;-62
2022/11/07 07:33:35;;;;;;;8.80;7.90;;;9.10;99.90;;;;;;6298900;28;20474;-62
2022/11/07 07:36:38;;;;;;;9.80;8.80;;;9.00;99.90;;;;;;6298091;28;20558;-62
2022/11/07 07:39:42;;;;;;;13.63;10.30;;;9.00;99.90;;;;;;6298083;28;20488;-62
2022/11/07 07:42:45;;;;;;;10.30;8.60;;;9.00;99.90;;;;;;6297823;28;20473;-62
2022/11/07 07:45:48;;;;;;;13.40;9.07;;;9.10;99.90;;;;;;6297617;28;20610;-63
2022/11/07 07:48:53;;;;;;;11.93;7.90;;;9.10;99.90;;;;;;6297942;28;20956;-64
2022/11/07 07:51:56;;;;;;;11.13;9.53;;;9.10;99.90;;;;;;6281587;28;20485;-62
2022/11/07 07:54:59;;;;;;;9.70;8.47;;;9.20;99.90;;;;;;6298110;28;20898;-62
2022/11/07 07:58:02;;;;;;;10.63;8.30;;;9.40;99.90;;;;;;6297564;28;20802;-62
2022/11/07 08:01:09;;;;;;;11.97;9.50;;;9.40;99.90;;;;;;6297786;28;20464;-62
2022/11/07 08:04:14;;;;;;;13.37;8.73;;;9.50;99.90;;;;;;6297917;28;20461;-63
2022/11/07 08:07:17;;;;;;;8.90;7.20;;;9.50;99.90;;;;;;6295420;28;20465;-63
2022/11/07 08:10:20;;;;;;;11.17;7.00;;;9.50;99.90;;;;;;6298133;28;20465;-63
2022/11/07 08:13:43;;;;;;;11.07;6.70;;;9.50;99.90;;;;;;6296006;28;20549;-63
2022/11/07 08:16:46;;;;;;;8.30;5.30;;;9.60;99.90;;;;;;6298081;28;20808;-63
2022/11/07 08:19:51;;;;;;;5.33;4.53;;;9.70;99.90;;;;;;6297499;28;20469;-63
2022/11/07 08:23:00;;;;;;;4.47;4.00;;;9.60;99.90;;;;;;6297221;28;20538;-62
2022/11/07 08:26:05;;;;;;;4.53;4.10;;;9.70;99.90;;;;;;6297640;28;20949;-62
2022/11/07 08:29:08;;;;;;;5.10;4.17;;;9.70;99.90;;;;;;6297031;28;20584;-62
2022/11/07 08:32:11;;;;;;;7.37;4.63;;;9.80;99.90;;;;;;6295756;28;20469;-62
2022/11/07 08:35:16;;;;;;;5.27;4.00;;;9.90;99.90;;;;;;6295736;28;20486;-62
2022/11/07 08:38:19;;;;;;;6.10;4.10;;;9.90;99.90;;;;;;6297504;28;20489;-62
2022/11/07 08:41:22;;;;;;;4.63;3.87;;;10.10;99.90;;;;;;6300595;28;20777;-63
2022/11/07 08:44:25;;;;;;;5.70;4.60;;;10.20;99.90;;;;;;6299838;28;20473;-63
2022/11/07 08:47:29;;;;;;;7.60;4.20;;;10.30;99.90;;;;;;6298131;28;20856;-63
2022/11/07 08:50:33;;;;;;;5.60;4.87;;;10.30;99.90;;;;;;6293071;28;20580;-63
2022/11/07 08:53:36;;;;;;;5.00;3.60;;;10.30;99.90;;;;;;6295929;28;20534;-65
2022/11/07 08:56:39;;;;;;;5.60;5.10;;;10.40;99.90;;;;;;6286931;28;20469;-61
2022/11/07 08:59:42;;;;;;;4.03;3.73;;;10.60;99.90;;;;;;6300874;28;20485;-62
2022/11/07 09:02:46;;;;;;;3.37;3.07;;;10.70;99.90;;;;;;6300147;28;20488;-62
2022/11/07 09:06:10;;;;;;;3.70;3.40;;;10.90;99.90;;;;;;6300808;28;20536;-64
2022/11/07 09:09:14;;;;;;;4.30;3.70;;;11.00;99.90;;;;;;6278641;28;20477;-67
2022/11/07 09:12:18;;;;;;;4.40;3.27;;;11.20;99.90;;;;;;6299723;28;20469;-62
2022/11/07 09:15:22;;;;;;;4.27;3.30;;;11.40;99.90;;;;;;6301523;28;20484;-62
2022/11/07 09:18:25;;;;;;;3.77;3.47;;;11.50;99.90;;;;;;6301775;28;20465;-61
2022/11/07 09:21:29;;;;;;;11.87;10.80;;;11.90;99.90;;;;;;6301404;28;20534;-61
2022/11/07 09:24:33;;;;;;;9.20;7.30;;;13.90;99.90;;;;;;6293303;28;20478;-62
2022/11/07 09:27:36;;;;;;;6.80;3.43;;;18.20;99.90;;;;;;6277105;28;20545;-64
2022/11/07 09:30:39;;;;;;;3.13;2.83;;;23.00;87.30;;;;;;6277010;28;20511;-62
2022/11/07 09:33:42;;;;;;;3.63;3.33;;;27.10;59.20;;;;;;6276516;28;20577;-61
2022/11/07 09:36:47;;;;;;;3.30;2.73;;;30.80;44.60;;;;;;6276741;28;20714;-62
2022/11/07 09:39:50;;;;;;;4.95;2.88;;;33.60;34.90;;;;;;6276563;28;20231;-63
2022/11/07 09:43:07;;;;;;;5.68;2.53;;;35.50;30.00;;;;;;6276672;28;20251;-65
2022/11/07 09:46:27;;;;;;;2.50;2.30;;;37.30;26.70;;;;;;6276802;28;20207;-66
2022/11/07 09:49:36;;;;;;;2.60;2.40;;;38.80;24.90;;;;;;6276505;28;20225;-63
2022/11/07 09:52:47;;;;;;;2.47;2.28;;;40.00;23.50;;;;;;6280349;28;20233;-62
2022/11/07 09:55:53;;;;;;;3.33;2.80;;;41.30;21.60;;;;;;6276471;28;20257;-62
2022/11/07 09:59:01;;;;;;;4.97;3.00;;;42.40;20.40;;;;;;6275817;28;20558;-64
2022/11/07 10:02:11;;;;;;;3.42;2.83;;;42.50;20.00;;;;;;6275437;28;20231;-63
2022/11/07 10:05:18;;;;;;;2.65;2.45;;;43.10;19.30;;;;;;6275032;28;20237;-62
2022/11/07 10:08:29;;;;;;;2.90;2.53;;;43.70;18.30;;;;;;6275208;28;20238;-62
2022/11/07 10:11:35;;;;;;;3.35;2.83;;;43.30;17.80;;;;;;6274665;28;20692;-63
2022/11/07 10:14:49;;;;;;;5.13;3.40;;;43.70;17.90;;;;;;6275371;28;20752;-63
2022/11/07 10:18:00;;;;;;;3.70;3.00;;;44.30;17.60;;;;;;6274742;28;20330;-61
2022/11/07 10:21:09;;;;;;;3.65;3.33;;;44.20;17.50;;;;;;6274792;28;20240;-63
2022/11/07 10:24:47;;;;;;;4.03;3.40;;;44.30;17.60;;;;;;6275008;28;20320;-62
2022/11/07 10:28:00;;;;;;;10.50;4.10;;;44.10;17.40;;;;;;6275920;28;20236;-63
2022/11/07 10:31:07;;;;;;;5.22;3.88;;;44.60;17.50;;;;;;6275492;28;20248;-61
2022/11/07 10:34:19;;;;;;;5.53;4.82;;;45.30;16.80;;;;;;6276028;28;20356;-63
2022/11/07 10:37:22;;;;;;;5.78;5.15;;;45.60;16.60;;;;;;6275470;28;20316;-62
2022/11/07 10:40:33;;;;;;;4.18;3.75;;;45.70;16.30;;;;;;6275132;28;20244;-63
2022/11/07 10:43:39;;;;;;;8.50;4.97;;;45.60;16.60;;;;;;6287646;28;20225;-63
2022/11/07 10:46:44;;;;;;;5.32;4.68;;;45.60;16.20;;;;;;6295199;28;20230;-62
2022/11/07 10:49:57;;;;;;;5.88;4.65;;;45.90;16.20;;;;;;6297748;28;20276;-62
2022/11/07 10:53:04;;;;;;;5.38;4.88;;;46.00;15.60;;;;;;6275660;28;20244;-62
2022/11/07 10:56:10;;;;;;;4.60;4.20;;;46.00;15.90;;;;;;6272776;28;20693;-61
2022/11/07 10:59:21;;;;;;;4.72;4.10;;;45.80;15.40;;;;;;6272987;28;20237;-62
2022/11/07 11:02:29;;;;;;;3.92;3.55;;;45.90;15.50;;;;;;6294166;28;20253;-62
2022/11/07 11:05:41;;;;;;;4.10;3.70;;;46.30;15.50;;;;;;6297657;28;20226;-61
2022/11/07 11:08:45;;;;;;;4.97;3.55;;;46.20;15.20;;;;;;6297379;28;20295;-61
2022/11/07 11:11:52;;;;;;;3.72;3.15;;;46.10;15.50;;;;;;6297803;28;20238;-61
2022/11/07 11:15:10;;;;;;;4.50;3.13;;;44.70;15.60;;;;;;6296068;28;20239;-61
2022/11/07 11:18:17;;;;;;;4.53;3.22;;;44.30;16.30;;;;;;6295563;28;20647;-61
2022/11/07 11:21:21;;;;;;;6.25;3.00;;;45.00;15.90;;;;;;6293676;28;20241;-61
2022/11/07 11:24:32;;;;;;;4.43;4.00;;;45.70;15.60;;;;;;6294585;28;20252;-61
2022/11/07 11:27:38;;;;;;;6.28;3.05;;;45.60;14.90;;;;;;6296637;28;20226;-61
2022/11/07 11:30:42;;;;;;;16.48;15.02;;;45.20;15.60;;;;;;6292574;28;20229;-61
2022/11/07 11:33:48;;;;;;;8.40;7.70;;;45.20;15.50;;;;;;6297969;28;20234;-61
2022/11/07 11:36:56;;;;;;;5.13;3.80;;;44.90;15.50;;;;;;6298886;28;20716;-61
2022/11/07 11:40:15;;;;;;;3.83;1.77;;;45.90;15.30;;;;;;6298554;28;20230;-61
2022/11/07 11:43:23;;;;;;;1.83;1.70;;;46.40;14.50;;;;;;6298093;28;20244;-61
2022/11/07 11:46:33;;;;;;;2.40;2.20;;;46.80;14.60;;;;;;6298080;28;20241;-62
2022/11/07 11:49:42;;;;;;;2.70;2.38;;;47.10;14.30;;;;;;6297612;28;20220;-62
2022/11/07 11:52:45;;;;;;;2.38;1.92;;;47.20;14.00;;;;;;6296314;28;20226;-62
2022/11/07 11:55:57;;;;;;;1.92;1.73;;;47.50;13.70;;;;;;6297986;28;20247;-62
2022/11/07 11:59:26;;;;;;;2.72;1.70;;;47.80;13.50;;;;;;6287122;28;20290;-62
2022/11/07 12:02:57;;;;;;;1.77;1.67;;;47.90;13.10;;;;;;6272523;28;20237;-61
2022/11/07 12:06:11;;;;;;;2.42;1.60;;;48.30;13.20;;;;;;6264327;28;20241;-61
2022/11/07 12:09:30;;;;;;;1.75;1.48;;;47.50;13.10;;;;;;6273007;28;20238;-61
2022/11/07 12:12:53;;;;;;;1.73;1.63;;;47.40;13.10;;;;;;6273211;28;20248;-61
2022/11/07 12:16:08;;;;;;;2.63;2.00;;;46.10;13.50;;;;;;6277290;28;20230;-62
2022/11/07 12:19:23;;;;;;;2.42;1.00;;;45.10;13.60;;;;;;6278367;28;20244;-61
2022/11/07 12:22:40;;;;;;;1.52;1.27;;;44.60;14.30;;;;;;6295852;28;20694;-62
2022/11/07 12:25:48;;;;;;;1.33;1.17;;;44.70;14.10;;;;;;6302472;28;20288;-61
2022/11/07 12:29:00;;;;;;;1.50;1.40;;;44.00;14.50;;;;;;6298851;28;20536;-62
2022/11/07 12:32:13;;;;;;;3.97;1.40;;;44.90;14.10;;;;;;6277760;28;20236;-61
2022/11/07 12:35:35;;;;;;;2.58;1.35;;;44.10;14.10;;;;;;6277533;28;20231;-62
2022/11/07 12:39:26;;;;;;;1.33;1.20;;;44.30;14.20;;;;;;6277400;28;20250;-61
2022/11/07 12:42:45;;;;;;;2.38;1.45;;;45.40;14.00;;;;;;6274092;28;20334;-61
2022/11/07 12:45:55;;;;;;;2.00;1.00;;;46.10;13.50;;;;;;6277422;28;20237;-61
2022/11/07 12:49:47;;;;;;;1.48;1.20;;;45.50;13.50;;;;;;6276959;28;20239;-61
2022/11/07 12:53:02;;;;;;;2.13;1.25;;;44.60;14.00;;;;;;6223318;28;20242;-61
2022/11/07 12:56:10;;;;;;;4.22;1.55;;;45.20;14.00;;;;;;6289729;28;20237;-61
2022/11/07 12:59:19;;;;;;;2.20;1.10;;;44.50;13.70;;;;;;6300281;28;20240;-61
2022/11/07 13:02:45;;;;;;;2.00;1.40;;;43.70;14.30;;;;;;6299853;28;20348;-61
2022/11/07 13:06:05;;;;;;;2.97;1.25;;;43.80;14.40;;;;;;6300163;28;20850;-61
2022/11/07 13:09:16;;;;;;;2.90;1.67;;;44.30;14.30;;;;;;6296164;28;20628;-61
2022/11/07 13:12:29;;;;;;;2.30;1.30;;;44.50;13.90;;;;;;6301635;28;20686;-60
2022/11/07 13:15:33;;;;;;;1.30;1.00;;;44.50;13.90;;;;;;6301535;28;20242;-61
2022/11/07 13:18:56;;;;;;;1.60;0.95;;;43.70;14.10;;;;;;6301118;28;20241;-61
2022/11/07 13:22:02;;;;;;;2.45;1.30;;;42.50;15.10;;;;;;6293508;28;20833;-61
2022/11/07 13:25:27;;;;;;;2.42;1.30;;;42.70;14.80;;;;;;6275989;28;20308;-61
2022/11/07 13:28:37;;;;;;;2.00;0.90;;;41.50;15.80;;;;;;6275968;28;20238;-61
2022/11/07 13:31:41;;;;;;;5.85;1.08;;;41.30;15.40;;;;;;6291278;28;20240;-60
2022/11/07 13:34:56;;;;;;;0.95;0.77;;;40.60;16.20;;;;;;6300923;28;20303;-61
2022/11/07 13:38:03;;;;;;;0.98;0.82;;;40.60;16.30;;;;;;6300511;28;20236;-61
2022/11/07 13:41:11;;;;;;;0.95;0.85;;;40.90;16.30;;;;;;6300879;28;20232;-61
2022/11/07 13:44:20;;;;;;;2.72;2.25;;;41.30;16.00;;;;;;6300251;28;20229;-60
2022/11/07 13:47:31;;;;;;;6.28;1.80;;;41.10;16.30;;;;;;6300539;28;20235;-61
2022/11/07 13:50:40;;;;;;;1.77;1.00;;;39.90;17.20;;;;;;6300555;28;20296;-61
2022/11/07 13:53:54;;;;;;;1.15;1.00;;;37.80;18.00;;;;;;6300712;28;20233;-60
2022/11/07 13:57:02;;;;;;;2.42;1.50;;;35.60;19.60;;;;;;6301409;28;20229;-60
2022/11/07 14:00:13;;;;;;;1.83;1.30;;;33.40;21.50;;;;;;6301232;28;20557;-60
2022/11/07 14:03:26;;;;;;;1.88;1.20;;;31.30;23.50;;;;;;6300942;28;20230;-59
2022/11/07 14:06:32;;;;;;;2.70;1.20;;;29.40;25.80;;;;;;6300538;28;20230;-59
2022/11/07 14:09:36;;;;;;;1.40;1.30;;;27.90;27.00;;;;;;6300486;28;20247;-59
2022/11/07 14:12:40;;;;;;;2.13;1.33;;;26.50;28.50;;;;;;6300405;28;20256;-60
2022/11/07 14:15:46;;;;;;;2.40;1.30;;;25.40;30.00;;;;;;6299969;28;20717;-60
2022/11/07 14:18:51;;;;;;;1.67;1.10;;;24.50;31.60;;;;;;6299546;28;20226;-60
2022/11/07 14:21:55;;;;;;;1.70;1.60;;;23.60;32.70;;;;;;6299638;28;20227;-60
2022/11/07 14:25:00;;;;;;;2.10;1.90;;;22.90;34.20;;;;;;6299742;28;20227;-60
2022/11/07 14:28:07;;;;;;;1.87;1.50;;;22.20;35.80;;;;;;6299992;28;20238;-61
2022/11/07 14:31:18;;;;;;;2.77;2.57;;;21.60;37.10;;;;;;6276835;28;20195;-60
2022/11/07 14:34:22;;;;;;;4.63;4.23;;;21.00;38.40;;;;;;6274895;28;20235;-59
2022/11/07 14:37:26;;;;;;;6.67;6.07;;;20.70;39.40;;;;;;6273337;28;20553;-60
2022/11/07 14:40:30;;;;;;;5.90;5.20;;;20.20;40.70;;;;;;6274751;28;20242;-59
2022/11/07 14:43:34;;;;;;;4.97;4.47;;;19.80;41.50;;;;;;6274620;28;20239;-60
2022/11/07 14:46:37;;;;;;;5.67;5.10;;;19.50;42.30;;;;;;6274602;28;20227;-60
2022/11/07 14:49:43;;;;;;;4.10;2.30;;;19.30;43.00;;;;;;6274657;28;20231;-60
2022/11/07 14:52:54;;;;;;;3.00;2.70;;;19.10;43.80;;;;;;6290179;28;20238;-59
2022/11/07 14:56:02;;;;;;;1.90;1.80;;;18.90;44.60;;;;;;6299264;28;20929;-60
2022/11/07 14:59:09;;;;;;;4.13;3.77;;;18.60;45.40;;;;;;6310974;28;20230;-60
2022/11/07 15:02:24;;;;;;;3.07;2.73;;;18.50;46.50;;;;;;6323592;28;20234;-59
2022/11/07 15:05:29;;;;;;;8.60;2.90;;;18.40;47.10;;;;;;6324112;28;20230;-59
2022/11/07 15:08:34;;;;;;;8.97;3.00;;;18.20;47.50;;;;;;6323927;28;20237;-60
2022/11/07 15:11:40;;;;;;;14.17;4.37;;;18.10;48.20;;;;;;6314144;28;20238;-60
2022/11/07 15:14:44;;;;;;;7.73;3.50;;;18.00;49.10;;;;;;6297204;28;20234;-60
2022/11/07 15:17:49;;;;;;;16.23;4.00;;;17.80;50.50;;;;;;6287686;28;20249;-60
2022/11/07 15:20:58;;;;;;;7.67;3.67;;;17.70;51.50;;;;;;6297036;28;20484;-60
2022/11/07 15:24:26;;;;;;;16.43;5.33;;;17.50;52.50;;;;;;6298624;28;20239;-61
2022/11/07 15:27:34;;;;;;;10.37;3.93;;;17.40;53.60;;;;;;6298753;28;20476;-60
2022/11/07 15:30:38;;;;;;;9.63;5.17;;;17.10;54.60;;;;;;6280262;28;20494;-59
2022/11/07 15:33:41;;;;;;;6.97;5.33;;;16.90;55.90;;;;;;6273460;28;20486;-60
2022/11/07 15:36:45;;;;;;;13.60;6.27;;;16.80;57.00;;;;;;6273567;28;20469;-60
2022/11/07 15:39:48;;;;;;;24.93;5.90;;;16.60;58.20;;;;;;6273735;28;20465;-59
2022/11/07 15:42:53;;;;;;;18.67;6.03;;;16.50;59.60;;;;;;6273534;28;20477;-59
2022/11/07 15:45:56;;;;;;;19.30;5.13;;;16.40;60.70;;;;;;6285216;28;20968;-60
2022/11/07 15:49:01;;;;;;;22.00;5.50;;;16.30;62.10;;;;;;6299441;28;20464;-60
2022/11/07 15:52:04;;;;;;;6.43;4.60;;;16.20;63.70;;;;;;6303425;28;20437;-60
2022/11/07 15:55:12;;;;;;;6.60;4.03;;;16.10;64.90;;;;;;6303713;28;20440;-59
2022/11/07 15:58:19;;;;;;;10.27;4.03;;;16.00;66.10;;;;;;6308540;28;20429;-59
2022/11/07 16:01:23;;;;;;;5.30;4.80;;;15.80;67.10;;;;;;6329481;28;20479;-59
2022/11/07 16:04:26;;;;;;;8.60;6.37;;;15.80;68.50;;;;;;6329327;28;20601;-60
2022/11/07 16:07:29;;;;;;;6.80;5.30;;;15.70;69.40;;;;;;6328454;28;20474;-60
2022/11/07 16:10:33;;;;;;;7.23;5.30;;;15.60;70.40;;;;;;6328831;28;20464;-61
2022/11/07 16:13:39;;;;;;;10.70;7.43;;;15.50;71.50;;;;;;6328986;28;20479;-60
2022/11/07 16:16:44;;;;;;;9.67;7.43;;;15.40;72.70;;;;;;6329163;28;20468;-59
2022/11/07 16:19:47;;;;;;;12.80;6.50;;;15.40;74.00;;;;;;6323766;28;20483;-59
2022/11/07 16:22:51;;;;;;;5.40;4.60;;;15.30;75.10;;;;;;6306174;28;20473;-59
2022/11/07 16:25:55;;;;;;;8.90;5.07;;;15.10;76.10;;;;;;6302439;28;20484;-59